Pagrindinis puslapis
METAR-TAF:

METAR-TAF

Oro uostai :

Sibu, Malaizija

platuma: 02-20N, ilguma: 111-50E, Aukštis: 8 m

Dabartinis oras

Ataskaita buvo paskelbta 47 minutes, ne 04:00 UTC
Vėjas 10 kt iš Šiaurės/Šiaurės Rytų, svyruoja nuo Šiaurės/Šiaurės Vakarų ir Rytų/Šiaurės Rytų
Temperatūra 32°C
Drėgmė 63%
Slėgis 1011 hPa
Matomumas 10 km arba daugiau
Išsisklaidę debesys ne aukštis 1800 ft

METAR: WBGS 020400Z 03010KT 340V060 9999 SCT018 32/24 Q1011

Laikas: 12:47 (04:47 UTC)

Prognozė

Ataskaita buvo paskelbta 5 valandos ir 47 minutes, ne 23:00 UTC
Prognozė galioja nuo 02 metu 00 UTC su 03 metu 00 UTC
Vėjas 3 kt nuo kintamojo kryptimis
Matomumas 10 km arba daugiau
Mažai debesys ne aukštis 1800 ft

TAF: WBGS 012300Z 0200/0300 VRB03KT 9999 FEW018

Orai ataskaitas ir orų prognozės (METAR, TAF).

turimą stotys yra geltonos ir raudonos taškus žemėlapyje.

Perkelti pele per norėdami pamatyti stoties vardą.

Tada spustelėkite, norėdami matyti oro stebėjimo ir prognozės.

Norėdami pakeisti žemėlapį: spustelėkite ant žalios mygtukų su juodo kryžiaus žemyn,; žalią mygtuką su brūkšneliu, jei norite nutolinti; arba žalių rodyklių gretimoms žemėlapius.


METAR-TAF: